sensor_id;sensor_type;location;lat;lon;timestamp;pressure;altitude;pressure_sealevel;temperature;humidity
11343;BME280;5726;42.160;24.746;2023-02-15T00:00:14;100806.25;;;5.80;62.67
11343;BME280;5726;42.160;24.746;2023-02-15T00:02:40;100792.72;;;5.81;62.73
11343;BME280;5726;42.160;24.746;2023-02-15T00:05:06;100795.06;;;5.89;62.55
11343;BME280;5726;42.160;24.746;2023-02-15T00:07:31;100806.88;;;5.93;62.56
11343;BME280;5726;42.160;24.746;2023-02-15T00:09:57;100801.72;;;5.80;63.41
11343;BME280;5726;42.160;24.746;2023-02-15T00:12:23;100795.84;;;5.90;62.70
11343;BME280;5726;42.160;24.746;2023-02-15T00:14:48;100801.19;;;5.90;62.97
11343;BME280;5726;42.160;24.746;2023-02-15T00:17:14;100801.28;;;5.83;63.66
11343;BME280;5726;42.160;24.746;2023-02-15T00:19:39;100804.00;;;5.95;63.44
11343;BME280;5726;42.160;24.746;2023-02-15T00:22:05;100799.19;;;5.85;63.96
11343;BME280;5726;42.160;24.746;2023-02-15T00:24:30;100807.78;;;5.87;64.19
11343;BME280;5726;42.160;24.746;2023-02-15T00:26:56;100814.81;;;5.82;64.63
11343;BME280;5726;42.160;24.746;2023-02-15T00:29:22;100813.56;;;5.84;64.99
11343;BME280;5726;42.160;24.746;2023-02-15T00:31:47;100807.06;;;5.80;65.23
11343;BME280;5726;42.160;24.746;2023-02-15T00:36:39;100803.00;;;5.78;65.49
11343;BME280;5726;42.160;24.746;2023-02-15T00:39:05;100800.78;;;5.75;65.83
11343;BME280;5726;42.160;24.746;2023-02-15T00:41:31;100804.19;;;5.64;66.46
11343;BME280;5726;42.160;24.746;2023-02-15T00:43:57;100814.50;;;5.43;67.63
11343;BME280;5726;42.160;24.746;2023-02-15T00:46:22;100821.94;;;5.52;67.25
11343;BME280;5726;42.160;24.746;2023-02-15T00:48:48;100813.69;;;5.71;65.51
11343;BME280;5726;42.160;24.746;2023-02-15T00:51:13;100813.06;;;5.58;66.16
11343;BME280;5726;42.160;24.746;2023-02-15T00:53:39;100806.13;;;5.57;66.13
11343;BME280;5726;42.160;24.746;2023-02-15T00:56:04;100801.66;;;5.69;65.21
11343;BME280;5726;42.160;24.746;2023-02-15T00:58:30;100806.94;;;5.58;65.93
11343;BME280;5726;42.160;24.746;2023-02-15T01:01:03;100811.25;;;5.70;64.94
11343;BME280;5726;42.160;24.746;2023-02-15T01:03:29;100795.41;;;5.64;64.70
11343;BME280;5726;42.160;24.746;2023-02-15T01:05:54;100795.34;;;5.52;65.28
11343;BME280;5726;42.160;24.746;2023-02-15T01:08:20;100805.09;;;5.58;65.21
11343;BME280;5726;42.160;24.746;2023-02-15T01:10:45;100804.66;;;5.43;65.86
11343;BME280;5726;42.160;24.746;2023-02-15T01:13:13;100798.81;;;5.53;66.30
11343;BME280;5726;42.160;24.746;2023-02-15T01:15:39;100795.84;;;5.61;65.75
11343;BME280;5726;42.160;24.746;2023-02-15T01:18:05;100786.69;;;5.57;65.80
11343;BME280;5726;42.160;24.746;2023-02-15T01:20:34;100789.41;;;5.68;65.74
11343;BME280;5726;42.160;24.746;2023-02-15T01:23:00;100780.34;;;5.58;65.96
11343;BME280;5726;42.160;24.746;2023-02-15T01:25:25;100777.91;;;5.56;65.86
11343;BME280;5726;42.160;24.746;2023-02-15T01:27:51;100780.78;;;5.55;66.08
11343;BME280;5726;42.160;24.746;2023-02-15T01:30:16;100769.94;;;5.56;65.99
11343;BME280;5726;42.160;24.746;2023-02-15T01:32:42;100765.28;;;5.52;66.34
11343;BME280;5726;42.160;24.746;2023-02-15T01:35:09;100779.34;;;5.70;65.31
11343;BME280;5726;42.160;24.746;2023-02-15T01:37:35;100775.94;;;5.81;64.85
11343;BME280;5726;42.160;24.746;2023-02-15T01:40:07;100782.59;;;6.01;63.62
11343;BME280;5726;42.160;24.746;2023-02-15T01:42:33;100793.22;;;5.72;64.75
11343;BME280;5726;42.160;24.746;2023-02-15T01:47:51;100795.31;;;5.70;64.63
11343;BME280;5726;42.160;24.746;2023-02-15T01:50:39;100788.09;;;5.77;64.76
11343;BME280;5726;42.160;24.746;2023-02-15T01:53:37;100794.09;;;5.84;63.63
11343;BME280;5726;42.160;24.746;2023-02-15T01:56:12;100806.84;;;5.64;64.96
11343;BME280;5726;42.160;24.746;2023-02-15T01:58:38;100803.44;;;5.75;64.30
11343;BME280;5726;42.160;24.746;2023-02-15T02:01:07;100806.84;;;5.64;64.67
11343;BME280;5726;42.160;24.746;2023-02-15T02:05:58;100821.72;;;5.54;65.12
11343;BME280;5726;42.160;24.746;2023-02-15T02:08:23;100817.19;;;5.54;65.02
11343;BME280;5726;42.160;24.746;2023-02-15T02:10:49;100813.88;;;5.59;65.39
11343;BME280;5726;42.160;24.746;2023-02-15T02:13:14;100808.16;;;5.73;64.24
11343;BME280;5726;42.160;24.746;2023-02-15T02:15:51;100813.34;;;5.68;64.76
11343;BME280;5726;42.160;24.746;2023-02-15T02:37:19;100819.63;;;5.56;66.51
11343;BME280;5726;42.160;24.746;2023-02-15T02:39:54;100826.81;;;5.55;66.93
11343;BME280;5726;42.160;24.746;2023-02-15T02:42:25;100835.78;;;5.43;66.88
11343;BME280;5726;42.160;24.746;2023-02-15T02:45:16;100828.63;;;5.25;66.79
11343;BME280;5726;42.160;24.746;2023-02-15T02:47:52;100834.38;;;5.40;66.17
11343;BME280;5726;42.160;24.746;2023-02-15T02:50:25;100824.41;;;5.36;65.94
11343;BME280;5726;42.160;24.746;2023-02-15T02:52:53;100830.91;;;5.40;65.44
11343;BME280;5726;42.160;24.746;2023-02-15T02:58:21;100835.69;;;5.49;65.11
11343;BME280;5726;42.160;24.746;2023-02-15T03:01:01;100828.31;;;5.33;65.67
11343;BME280;5726;42.160;24.746;2023-02-15T03:03:43;100830.59;;;5.30;65.92
11343;BME280;5726;42.160;24.746;2023-02-15T03:06:23;100834.38;;;5.40;65.72
11343;BME280;5726;42.160;24.746;2023-02-15T03:08:59;100835.59;;;5.56;65.08
11343;BME280;5726;42.160;24.746;2023-02-15T03:11:26;100837.31;;;5.50;64.58
11343;BME280;5726;42.160;24.746;2023-02-15T03:13:52;100840.47;;;5.59;64.41
11343;BME280;5726;42.160;24.746;2023-02-15T03:16:18;100841.00;;;5.49;65.15
11343;BME280;5726;42.160;24.746;2023-02-15T03:19:04;100834.16;;;5.42;65.51
11343;BME280;5726;42.160;24.746;2023-02-15T03:24:11;100833.03;;;5.31;66.87
11343;BME280;5726;42.160;24.746;2023-02-15T03:26:39;100834.38;;;5.22;67.63
11343;BME280;5726;42.160;24.746;2023-02-15T03:29:07;100835.13;;;5.29;67.49
11343;BME280;5726;42.160;24.746;2023-02-15T03:31:38;100843.25;;;5.17;68.49
11343;BME280;5726;42.160;24.746;2023-02-15T03:34:08;100832.16;;;5.37;67.33
11343;BME280;5726;42.160;24.746;2023-02-15T03:36:45;100828.31;;;5.16;68.18
11343;BME280;5726;42.160;24.746;2023-02-15T03:39:18;100840.72;;;5.39;67.09
11343;BME280;5726;42.160;24.746;2023-02-15T03:41:54;100836.44;;;5.38;66.58
11343;BME280;5726;42.160;24.746;2023-02-15T03:44:32;100836.06;;;5.35;67.00
11343;BME280;5726;42.160;24.746;2023-02-15T03:47:06;100838.72;;;5.35;66.90
11343;BME280;5726;42.160;24.746;2023-02-15T03:52:07;100842.78;;;5.37;66.36
11343;BME280;5726;42.160;24.746;2023-02-15T03:54:34;100846.91;;;5.33;66.59
11343;BME280;5726;42.160;24.746;2023-02-15T04:05:27;100847.22;;;5.43;67.30
11343;BME280;5726;42.160;24.746;2023-02-15T04:07:53;100859.84;;;5.48;67.10
11343;BME280;5726;42.160;24.746;2023-02-15T04:10:18;100857.63;;;5.63;66.53
11343;BME280;5726;42.160;24.746;2023-02-15T04:13:02;100852.84;;;5.53;65.94
11343;BME280;5726;42.160;24.746;2023-02-15T04:15:28;100851.19;;;5.52;66.72
11343;BME280;5726;42.160;24.746;2023-02-15T04:18:12;100848.41;;;5.47;65.95
11343;BME280;5726;42.160;24.746;2023-02-15T04:20:37;100862.28;;;5.49;65.73
11343;BME280;5726;42.160;24.746;2023-02-15T04:23:21;100853.28;;;5.50;65.52
11343;BME280;5726;42.160;24.746;2023-02-15T04:26:05;100862.72;;;5.46;66.00
11343;BME280;5726;42.160;24.746;2023-02-15T04:28:31;100864.94;;;5.67;64.42
11343;BME280;5726;42.160;24.746;2023-02-15T04:30:56;100865.28;;;5.70;63.57
11343;BME280;5726;42.160;24.746;2023-02-15T04:33:22;100863.47;;;5.53;64.68
11343;BME280;5726;42.160;24.746;2023-02-15T04:35:47;100868.19;;;5.51;64.53
11343;BME280;5726;42.160;24.746;2023-02-15T04:38:13;100876.78;;;5.53;64.45
11343;BME280;5726;42.160;24.746;2023-02-15T04:40:38;100872.94;;;5.49;64.36
11343;BME280;5726;42.160;24.746;2023-02-15T04:43:03;100877.66;;;5.47;64.57
11343;BME280;5726;42.160;24.746;2023-02-15T04:45:29;100871.16;;;5.61;63.86
11343;BME280;5726;42.160;24.746;2023-02-15T04:47:54;100881.47;;;5.51;64.34
11343;BME280;5726;42.160;24.746;2023-02-15T04:50:20;100882.38;;;5.45;65.09
11343;BME280;5726;42.160;24.746;2023-02-15T04:52:46;100888.88;;;5.67;64.07
11343;BME280;5726;42.160;24.746;2023-02-15T04:55:11;100896.56;;;5.57;64.52
11343;BME280;5726;42.160;24.746;2023-02-15T04:57:37;100904.69;;;5.44;64.69
11343;BME280;5726;42.160;24.746;2023-02-15T05:00:03;100896.56;;;5.57;64.28
11343;BME280;5726;42.160;24.746;2023-02-15T05:02:29;100907.38;;;5.80;62.87
11343;BME280;5726;42.160;24.746;2023-02-15T05:04:54;100908.41;;;5.79;63.06
11343;BME280;5726;42.160;24.746;2023-02-15T05:07:19;100913.59;;;5.74;63.12
11343;BME280;5726;42.160;24.746;2023-02-15T05:09:48;100913.34;;;5.58;64.00
11343;BME280;5726;42.160;24.746;2023-02-15T05:12:13;100912.31;;;5.76;63.27
11343;BME280;5726;42.160;24.746;2023-02-15T05:14:39;100916.22;;;5.56;64.20
11343;BME280;5726;42.160;24.746;2023-02-15T05:17:04;100917.91;;;5.33;65.75
11343;BME280;5726;42.160;24.746;2023-02-15T05:19:30;100927.16;;;5.48;64.78
11343;BME280;5726;42.160;24.746;2023-02-15T05:21:56;100926.13;;;5.49;64.33
11343;BME280;5726;42.160;24.746;2023-02-15T05:24:21;100941.34;;;5.60;64.11
11343;BME280;5726;42.160;24.746;2023-02-15T05:27:05;100937.56;;;5.50;64.67
11343;BME280;5726;42.160;24.746;2023-02-15T05:29:49;100932.00;;;5.69;63.36
11343;BME280;5726;42.160;24.746;2023-02-15T05:32:15;100942.06;;;5.67;63.51
11343;BME280;5726;42.160;24.746;2023-02-15T05:34:40;100941.19;;;5.55;63.91
11343;BME280;5726;42.160;24.746;2023-02-15T05:37:06;100935.00;;;5.61;64.14
11343;BME280;5726;42.160;24.746;2023-02-15T05:39:32;100929.81;;;5.84;63.17
11343;BME280;5726;42.160;24.746;2023-02-15T05:42:01;100949.53;;;6.12;65.40
11343;BME280;5726;42.160;24.746;2023-02-15T05:44:26;100952.41;;;6.11;62.25
11343;BME280;5726;42.160;24.746;2023-02-15T05:46:52;100952.41;;;6.11;62.35
11343;BME280;5726;42.160;24.746;2023-02-15T05:49:17;100952.25;;;6.23;61.75
11343;BME280;5726;42.160;24.746;2023-02-15T05:51:43;100946.16;;;6.75;72.59
11343;BME280;5726;42.160;24.746;2023-02-15T05:54:08;100950.69;;;6.86;63.04
11343;BME280;5726;42.160;24.746;2023-02-15T05:56:33;100957.97;;;6.79;59.77
11343;BME280;5726;42.160;24.746;2023-02-15T05:58:59;100963.06;;;6.80;59.13
11343;BME280;5726;42.160;24.746;2023-02-15T06:01:24;100957.44;;;6.88;63.02
11343;BME280;5726;42.160;24.746;2023-02-15T06:03:50;100962.19;;;7.20;61.37
11343;BME280;5726;42.160;24.746;2023-02-15T06:06:17;100967.19;;;7.28;60.35
11343;BME280;5726;42.160;24.746;2023-02-15T06:08:43;100960.25;;;7.39;62.70
11343;BME280;5726;42.160;24.746;2023-02-15T06:11:08;100978.00;;;7.45;57.66
11343;BME280;5726;42.160;24.746;2023-02-15T06:13:34;100972.88;;;7.43;57.63
11343;BME280;5726;42.160;24.746;2023-02-15T06:16:00;100964.88;;;7.32;57.44
11343;BME280;5726;42.160;24.746;2023-02-15T06:18:25;100962.78;;;7.34;57.72
11343;BME280;5726;42.160;24.746;2023-02-15T06:20:51;100966.38;;;7.51;57.70
11343;BME280;5726;42.160;24.746;2023-02-15T06:23:17;100972.66;;;7.33;57.29
11343;BME280;5726;42.160;24.746;2023-02-15T06:25:44;100981.34;;;7.63;56.75
11343;BME280;5726;42.160;24.746;2023-02-15T06:28:10;100972.88;;;7.43;57.31
11343;BME280;5726;42.160;24.746;2023-02-15T06:30:35;100974.63;;;7.38;57.55
11343;BME280;5726;42.160;24.746;2023-02-15T06:33:00;100970.88;;;7.50;57.47
11343;BME280;5726;42.160;24.746;2023-02-15T06:35:26;100969.59;;;7.75;56.40
11343;BME280;5726;42.160;24.746;2023-02-15T06:37:51;100974.91;;;7.87;55.76
11343;BME280;5726;42.160;24.746;2023-02-15T06:40:17;100978.63;;;7.86;56.23
11343;BME280;5726;42.160;24.746;2023-02-15T06:42:43;100987.53;;;8.14;55.30
11343;BME280;5726;42.160;24.746;2023-02-15T06:45:10;100982.75;;;8.05;54.67
11343;BME280;5726;42.160;24.746;2023-02-15T06:47:36;100981.59;;;8.01;55.42
11343;BME280;5726;42.160;24.746;2023-02-15T06:50:01;100978.03;;;7.95;56.13
11343;BME280;5726;42.160;24.746;2023-02-15T06:52:27;100985.81;;;7.97;55.81
11343;BME280;5726;42.160;24.746;2023-02-15T06:54:53;100984.19;;;7.96;55.80
11343;BME280;5726;42.160;24.746;2023-02-15T06:57:18;100983.94;;;7.97;55.87
11343;BME280;5726;42.160;24.746;2023-02-15T06:59:44;100983.22;;;8.02;55.40
11343;BME280;5726;42.160;24.746;2023-02-15T07:02:12;100987.00;;;7.78;56.60
11343;BME280;5726;42.160;24.746;2023-02-15T07:04:38;100983.16;;;7.74;56.59
11343;BME280;5726;42.160;24.746;2023-02-15T07:07:03;100976.22;;;7.73;56.52
11343;BME280;5726;42.160;24.746;2023-02-15T07:09:29;100971.22;;;7.65;56.74
11343;BME280;5726;42.160;24.746;2023-02-15T07:11:54;100969.94;;;7.67;56.74
11343;BME280;5726;42.160;24.746;2023-02-15T07:14:38;100971.06;;;7.83;56.20
11343;BME280;5726;42.160;24.746;2023-02-15T07:17:06;100971.69;;;7.85;56.23
11343;BME280;5726;42.160;24.746;2023-02-15T07:19:31;100974.59;;;7.83;56.22
11343;BME280;5726;42.160;24.746;2023-02-15T07:21:56;100974.91;;;7.87;56.05
11343;BME280;5726;42.160;24.746;2023-02-15T07:24:22;100980.31;;;8.03;55.70
11343;BME280;5726;42.160;24.746;2023-02-15T07:26:47;100966.53;;;7.95;56.44
11343;BME280;5726;42.160;24.746;2023-02-15T07:29:13;100969.09;;;7.90;56.60
11343;BME280;5726;42.160;24.746;2023-02-15T07:31:38;100975.84;;;7.81;57.11
11343;BME280;5726;42.160;24.746;2023-02-15T07:34:05;100973.25;;;7.97;61.08
11343;BME280;5726;42.160;24.746;2023-02-15T07:36:31;100972.31;;;8.14;56.63
11343;BME280;5726;42.160;24.746;2023-02-15T07:38:57;100973.22;;;8.20;56.15
11343;BME280;5726;42.160;24.746;2023-02-15T07:41:23;100976.09;;;8.30;55.92
11343;BME280;5726;42.160;24.746;2023-02-15T07:43:48;100983.88;;;8.31;55.68
11343;BME280;5726;42.160;24.746;2023-02-15T07:46:16;100979.38;;;8.48;55.18
11343;BME280;5726;42.160;24.746;2023-02-15T07:48:42;100973.50;;;8.35;55.59
11343;BME280;5726;42.160;24.746;2023-02-15T07:51:09;100986.91;;;8.51;57.25
11343;BME280;5726;42.160;24.746;2023-02-15T07:53:35;100988.00;;;8.50;55.31
11343;BME280;5726;42.160;24.746;2023-02-15T07:56:07;100979.09;;;8.33;55.96
11343;BME280;5726;42.160;24.746;2023-02-15T07:58:36;100984.72;;;8.48;55.60
11343;BME280;5726;42.160;24.746;2023-02-15T08:01:29;100987.78;;;8.40;55.78
11343;BME280;5726;42.160;24.746;2023-02-15T08:03:55;100977.84;;;8.24;59.95
11343;BME280;5726;42.160;24.746;2023-02-15T08:06:22;100981.41;;;8.41;55.81
11343;BME280;5726;42.160;24.746;2023-02-15T08:08:48;100974.84;;;8.93;53.67
11343;BME280;5726;42.160;24.746;2023-02-15T08:11:20;100978.97;;;8.84;54.52
11343;BME280;5726;42.160;24.746;2023-02-15T08:14:09;100977.50;;;9.25;67.40
11343;BME280;5726;42.160;24.746;2023-02-15T08:16:42;100969.22;;;9.43;66.26
11343;BME280;5726;42.160;24.746;2023-02-15T08:19:12;100973.22;;;9.78;57.96
11343;BME280;5726;42.160;24.746;2023-02-15T08:21:40;100966.63;;;9.86;57.33
11343;BME280;5726;42.160;24.746;2023-02-15T08:24:07;100975.69;;;9.85;52.25
11343;BME280;5726;42.160;24.746;2023-02-15T08:26:34;100964.72;;;9.65;53.16
11343;BME280;5726;42.160;24.746;2023-02-15T08:29:01;100979.56;;;9.72;51.89
11343;BME280;5726;42.160;24.746;2023-02-15T08:31:26;100981.44;;;9.72;52.78
11343;BME280;5726;42.160;24.746;2023-02-15T08:33:54;100980.28;;;10.05;51.10
11343;BME280;5726;42.160;24.746;2023-02-15T08:36:23;100976.59;;;10.33;51.12
11343;BME280;5726;42.160;24.746;2023-02-15T08:38:49;100971.00;;;10.60;50.32
11343;BME280;5726;42.160;24.746;2023-02-15T08:41:19;100978.94;;;10.50;50.53
11343;BME280;5726;42.160;24.746;2023-02-15T08:43:47;100976.56;;;10.80;49.46
11343;BME280;5726;42.160;24.746;2023-02-15T08:46:14;100973.31;;;11.04;48.13
11343;BME280;5726;42.160;24.746;2023-02-15T08:48:40;100973.84;;;11.06;48.29
11343;BME280;5726;42.160;24.746;2023-02-15T08:51:16;100980.44;;;11.25;47.63
11343;BME280;5726;42.160;24.746;2023-02-15T08:53:45;100977.00;;;11.30;47.69
11343;BME280;5726;42.160;24.746;2023-02-15T08:56:11;100975.97;;;11.77;47.38
11343;BME280;5726;42.160;24.746;2023-02-15T08:58:37;100970.66;;;11.87;45.90
11343;BME280;5726;42.160;24.746;2023-02-15T09:03:39;100963.94;;;11.43;46.62
11343;BME280;5726;42.160;24.746;2023-02-15T09:06:05;100980.47;;;11.30;47.07
11343;BME280;5726;42.160;24.746;2023-02-15T09:08:31;100982.09;;;11.67;48.55
11343;BME280;5726;42.160;24.746;2023-02-15T09:11:11;100977.88;;;11.81;46.12
11343;BME280;5726;42.160;24.746;2023-02-15T09:13:38;100976.13;;;12.06;45.15
11343;BME280;5726;42.160;24.746;2023-02-15T09:16:06;100966.38;;;11.91;45.55
11343;BME280;5726;42.160;24.746;2023-02-15T09:18:35;100964.19;;;11.83;44.88
11343;BME280;5726;42.160;24.746;2023-02-15T09:21:10;100957.22;;;11.92;45.45
11343;BME280;5726;42.160;24.746;2023-02-15T09:23:39;100955.44;;;12.12;45.53
11343;BME280;5726;42.160;24.746;2023-02-15T09:26:16;100959.91;;;11.92;44.94
11343;BME280;5726;42.160;24.746;2023-02-15T09:28:42;100949.22;;;12.06;45.17
11343;BME280;5726;42.160;24.746;2023-02-15T09:31:10;100953.69;;;12.47;44.95
11343;BME280;5726;42.160;24.746;2023-02-15T09:33:36;100950.47;;;12.60;44.13
11343;BME280;5726;42.160;24.746;2023-02-15T09:36:12;100942.41;;;12.70;43.81
11343;BME280;5726;42.160;24.746;2023-02-15T09:38:38;100955.34;;;12.78;43.00
11343;BME280;5726;42.160;24.746;2023-02-15T09:48:50;100941.38;;;12.90;42.49
11343;BME280;5726;42.160;24.746;2023-02-15T09:54:02;100931.69;;;12.85;43.18
11343;BME280;5726;42.160;24.746;2023-02-15T09:59:33;100928.34;;;12.28;43.92
11343;BME280;5726;42.160;24.746;2023-02-15T10:05:46;100909.28;;;12.49;43.67
11343;BME280;5726;42.160;24.746;2023-02-15T10:13:32;100911.22;;;12.74;42.58
11343;BME280;5726;42.160;24.746;2023-02-15T10:26:45;100902.63;;;12.91;42.22
11343;BME280;5726;42.160;24.746;2023-02-15T10:31:59;100889.16;;;12.91;42.13
11343;BME280;5726;42.160;24.746;2023-02-15T10:34:37;100878.63;;;13.15;41.09
11343;BME280;5726;42.160;24.746;2023-02-15T10:37:21;100885.94;;;12.85;42.00
11343;BME280;5726;42.160;24.746;2023-02-15T10:50:47;100873.56;;;12.89;43.41
11343;BME280;5726;42.160;24.746;2023-02-15T10:53:29;100869.75;;;13.14;40.91
11343;BME280;5726;42.160;24.746;2023-02-15T10:56:17;100870.56;;;13.20;40.24
11343;BME280;5726;42.160;24.746;2023-02-15T11:07:03;100860.53;;;13.35;39.83
11343;BME280;5726;42.160;24.746;2023-02-15T11:09:37;100854.09;;;13.16;39.75
11343;BME280;5726;42.160;24.746;2023-02-15T11:12:09;100861.34;;;13.36;39.49
11343;BME280;5726;42.160;24.746;2023-02-15T11:14:43;100855.97;;;13.31;39.23
11343;BME280;5726;42.160;24.746;2023-02-15T11:17:14;100849.72;;;13.50;38.76
11343;BME280;5726;42.160;24.746;2023-02-15T11:20:09;100844.06;;;13.51;38.98
11343;BME280;5726;42.160;24.746;2023-02-15T11:22:41;100841.06;;;13.58;38.40
11343;BME280;5726;42.160;24.746;2023-02-15T11:25:28;100843.81;;;13.48;38.58
11343;BME280;5726;42.160;24.746;2023-02-15T11:27:55;100831.28;;;12.99;40.01
11343;BME280;5726;42.160;24.746;2023-02-15T11:30:23;100827.19;;;13.16;39.93
11343;BME280;5726;42.160;24.746;2023-02-15T11:33:00;100826.03;;;13.37;38.87
11343;BME280;5726;42.160;24.746;2023-02-15T11:35:32;100817.13;;;13.46;38.79
11343;BME280;5726;42.160;24.746;2023-02-15T11:38:10;100814.06;;;13.68;38.46
11343;BME280;5726;42.160;24.746;2023-02-15T11:45:41;100808.31;;;13.26;38.87
11343;BME280;5726;42.160;24.746;2023-02-15T11:48:12;100813.66;;;13.31;38.68
11343;BME280;5726;42.160;24.746;2023-02-15T11:50:39;100815.78;;;13.44;38.32
11343;BME280;5726;42.160;24.746;2023-02-15T11:53:11;100808.25;;;13.41;38.48
11343;BME280;5726;42.160;24.746;2023-02-15T11:55:37;100801.66;;;13.67;38.17
11343;BME280;5726;42.160;24.746;2023-02-15T11:58:11;100807.75;;;13.87;37.87
11343;BME280;5726;42.160;24.746;2023-02-15T12:00:46;100800.28;;;13.74;38.59
11343;BME280;5726;42.160;24.746;2023-02-15T12:03:41;100792.84;;;14.04;36.81
11343;BME280;5726;42.160;24.746;2023-02-15T12:08:48;100782.53;;;13.68;37.04
11343;BME280;5726;42.160;24.746;2023-02-15T12:11:20;100785.00;;;13.60;37.23
11343;BME280;5726;42.160;24.746;2023-02-15T12:14:06;100782.38;;;13.40;37.36
11343;BME280;5726;42.160;24.746;2023-02-15T12:16:43;100776.81;;;13.22;37.81
11343;BME280;5726;42.160;24.746;2023-02-15T12:21:54;100788.53;;;13.55;37.08
11343;BME280;5726;42.160;24.746;2023-02-15T12:27:05;100782.88;;;13.52;37.40
11343;BME280;5726;42.160;24.746;2023-02-15T12:29:50;100779.53;;;13.70;37.75
11343;BME280;5726;42.160;24.746;2023-02-15T12:32:29;100774.34;;;13.83;36.57
11343;BME280;5726;42.160;24.746;2023-02-15T12:35:01;100780.19;;;14.00;36.02
11343;BME280;5726;42.160;24.746;2023-02-15T12:37:32;100787.38;;;14.14;35.13
11343;BME280;5726;42.160;24.746;2023-02-15T12:40:01;100772.91;;;14.00;35.40
11343;BME280;5726;42.160;24.746;2023-02-15T12:42:41;100774.69;;;13.72;35.81
11343;BME280;5726;42.160;24.746;2023-02-15T12:50:38;100766.88;;;14.18;35.63
11343;BME280;5726;42.160;24.746;2023-02-15T12:53:53;100764.84;;;13.95;36.34
11343;BME280;5726;42.160;24.746;2023-02-15T12:55:58;100760.50;;;13.99;35.93
11343;BME280;5726;42.160;24.746;2023-02-15T12:58:25;100756.50;;;13.92;36.22
11343;BME280;5726;42.160;24.746;2023-02-15T13:03:50;100760.41;;;14.14;34.78
11343;BME280;5726;42.160;24.746;2023-02-15T13:06:20;100757.66;;;14.24;34.37
11343;BME280;5726;42.160;24.746;2023-02-15T13:08:48;100761.66;;;13.88;34.70
11343;BME280;5726;42.160;24.746;2023-02-15T13:11:21;100755.06;;;14.04;34.72
11343;BME280;5726;42.160;24.746;2023-02-15T13:13:53;100755.91;;;14.05;34.30
11343;BME280;5726;42.160;24.746;2023-02-15T13:16:28;100757.25;;;14.07;34.56
11343;BME280;5726;42.160;24.746;2023-02-15T13:18:56;100752.06;;;14.44;33.57
11343;BME280;5726;42.160;24.746;2023-02-15T13:21:25;100753.09;;;14.20;34.21
11343;BME280;5726;42.160;24.746;2023-02-15T13:24:05;100752.69;;;14.36;34.69
11343;BME280;5726;42.160;24.746;2023-02-15T13:26:32;100751.50;;;14.47;34.02
11343;BME280;5726;42.160;24.746;2023-02-15T13:29:05;100756.00;;;14.28;34.58
11343;BME280;5726;42.160;24.746;2023-02-15T13:31:35;100757.66;;;14.24;34.29
11343;BME280;5726;42.160;24.746;2023-02-15T13:34:12;100745.38;;;14.03;34.36
11343;BME280;5726;42.160;24.746;2023-02-15T13:36:51;100743.03;;;14.30;33.93
11343;BME280;5726;42.160;24.746;2023-02-15T13:39:24;100741.81;;;14.13;34.20
11343;BME280;5726;42.160;24.746;2023-02-15T13:47:34;100727.63;;;14.31;33.83
11343;BME280;5726;42.160;24.746;2023-02-15T13:55:44;100729.59;;;14.25;33.62
11343;BME280;5726;42.160;24.746;2023-02-15T13:58:31;100738.81;;;14.19;33.50
11343;BME280;5726;42.160;24.746;2023-02-15T14:01:09;100733.97;;;14.16;33.50
11343;BME280;5726;42.160;24.746;2023-02-15T14:06:56;100738.03;;;14.14;33.87
11343;BME280;5726;42.160;24.746;2023-02-15T14:17:47;100734.56;;;14.41;33.37
11343;BME280;5726;42.160;24.746;2023-02-15T14:23:07;100728.19;;;14.61;33.50
11343;BME280;5726;42.160;24.746;2023-02-15T14:25:55;100732.19;;;14.63;33.47
11343;BME280;5726;42.160;24.746;2023-02-15T14:30:58;100737.94;;;14.57;34.05
11343;BME280;5726;42.160;24.746;2023-02-15T14:33:37;100729.31;;;14.55;33.35
11343;BME280;5726;42.160;24.746;2023-02-15T14:36:07;100733.00;;;14.64;32.67
11343;BME280;5726;42.160;24.746;2023-02-15T14:38:51;100726.66;;;14.50;33.11
11343;BME280;5726;42.160;24.746;2023-02-15T14:41:36;100734.78;;;14.17;33.93
11343;BME280;5726;42.160;24.746;2023-02-15T14:44:37;100738.25;;;14.17;34.27
11343;BME280;5726;42.160;24.746;2023-02-15T14:47:37;100742.38;;;14.43;34.06
11343;BME280;5726;42.160;24.746;2023-02-15T14:50:35;100737.97;;;14.52;33.66
11343;BME280;5726;42.160;24.746;2023-02-15T14:56:06;100741.25;;;14.49;33.72
11343;BME280;5726;42.160;24.746;2023-02-15T15:01:33;100745.38;;;14.70;33.34
11343;BME280;5726;42.160;24.746;2023-02-15T15:04:06;100740.97;;;14.50;33.25
11343;BME280;5726;42.160;24.746;2023-02-15T15:06:35;100739.13;;;14.41;34.72
11343;BME280;5726;42.160;24.746;2023-02-15T15:11:39;100744.50;;;14.46;32.16
11343;BME280;5726;42.160;24.746;2023-02-15T15:14:05;100737.41;;;14.27;33.80
11343;BME280;5726;42.160;24.746;2023-02-15T15:16:46;100742.59;;;14.18;33.52
11343;BME280;5726;42.160;24.746;2023-02-15T15:22:21;100746.75;;;14.06;33.38
11343;BME280;5726;42.160;24.746;2023-02-15T15:24:51;100746.16;;;14.04;33.48
11343;BME280;5726;42.160;24.746;2023-02-15T15:27:46;100751.75;;;14.17;33.19
11343;BME280;5726;42.160;24.746;2023-02-15T15:35:34;100755.00;;;14.19;36.59
11343;BME280;5726;42.160;24.746;2023-02-15T15:46:28;100757.53;;;14.06;34.40
11343;BME280;5726;42.160;24.746;2023-02-15T15:49:02;100757.22;;;14.02;35.68
11343;BME280;5726;42.160;24.746;2023-02-15T15:51:32;100765.38;;;13.97;36.57
11343;BME280;5726;42.160;24.746;2023-02-15T15:54:01;100766.47;;;13.91;36.79
11343;BME280;5726;42.160;24.746;2023-02-15T15:56:31;100778.34;;;13.95;36.38
11343;BME280;5726;42.160;24.746;2023-02-15T15:59:01;100775.81;;;14.04;41.81
11343;BME280;5726;42.160;24.746;2023-02-15T16:01:29;100778.78;;;14.12;41.88
11343;BME280;5726;42.160;24.746;2023-02-15T16:03:57;100782.69;;;14.30;40.77
11343;BME280;5726;42.160;24.746;2023-02-15T16:06:28;100776.19;;;14.64;44.03